Главная страница
METAR-TAF:

METAR-TAF

Аэропорты :

Николаев, Украина

широта: 47-03-29N, долгота: 031-55-15E, высота над уровнем моря: 56 м

METAR: отсутствует

Время: 21:44 (19:44 UTC)

Прогноз

Эта сводка был подготовлена 32 часа и 42 минут назад, в 11:02 UTC
Прогноз действительный с 22-го 12 UTC до 22-го 21 UTC
Ветер 12 Узел от южный с порывами до 23 Узел
Видимость: 2100 м
Отдельные облака на высоте 300 фута
Рассеянная облачность на высоте 700 фута
дымка
Вероятность 40% :
временами
С 22-го 12 UTC до 22-го 15 UTC
Видимость: 0300 м
на высоте 200 фута
туман

TAF: UKON 221102Z 2212/2221 19006G12MPS 2100 BR SCT003 BKN007 TX08/2213Z TN03/2221Z PROB40 TEMPO 2212/2215 0300 FG VV002

Метеонаблюдения и прогнозы для более 4000 аэропортов (сводки METAR и TAF).

Имеющиеся станции представлены на карте желтыми и красными точками.

Чтобы увидеть название станции, наведите на нее мышь.

Затем щелкните, чтобы увидеть метеонаблюдения и метеопрогнозы.

Управление картой: чтобы увеличить масштаб, щелкните зеленые кнопки с черным крестиком; чтобы уменьшить масштаб, щелкните зеленую кнопку с тире; для просмотра соседних карт щелкайте зеленые стрелки.


METAR-TAF: